Time;durP1;ratioP1;P1;durP2;ratioP2;P2;SDS_P1;SDS_P2;PMS_P1;PMS_P2;Temp;Humidity;BMP_temperature;BMP_pressure;BME280_temperature;BME280_humidity;BME280_pressure;Samples;Min_cycle;Max_cycle;Signal;HPM_P1;HPM_P2
2021/10/01 00:03:47;;;;;;;26.60;10.48;;;;;;;;;;8226925;28;20372;-74
2021/10/01 00:07:52;;;;;;;21.42;9.57;;;;;;;;;;8214925;28;20491;-73
2021/10/01 00:11:57;;;;;;;23.98;10.38;;;;;;;;;;8223475;28;20455;-74
2021/10/01 00:16:02;;;;;;;22.10;10.10;;;;;;;;;;8225269;28;20349;-74
2021/10/01 00:20:08;;;;;;;18.05;9.00;;;;;;;;;;8225590;28;20353;-74
2021/10/01 00:24:14;;;;;;;21.25;8.23;;;;;;;;;;8224906;28;20469;-74
2021/10/01 00:28:19;;;;;;;15.35;8.38;;;;;;;;;;8224707;28;20049;-74
2021/10/01 00:32:24;;;;;;;15.52;8.38;;;;;;;;;;8224220;28;20473;-74
2021/10/01 00:36:32;;;;;;;19.38;8.93;;;;;;;;;;8227117;28;20042;-74
2021/10/01 00:40:37;;;;;;;14.20;6.93;;;;;;;;;;8224600;28;20072;-74
2021/10/01 00:44:42;;;;;;;15.15;7.63;;;;;;;;;;8224663;28;20045;-74
2021/10/01 00:48:48;;;;;;;22.90;7.70;;;;;;;;;;8224247;28;20476;-74
2021/10/01 00:52:53;;;;;;;18.67;7.75;;;;;;;;;;8224969;28;20054;-74
2021/10/01 00:56:59;;;;;;;18.80;7.60;;;;;;;;;;8224659;28;20471;-74
2021/10/01 01:01:14;;;;;;;20.20;7.53;;;;;;;;;;8239340;28;20371;-74
2021/10/01 01:05:20;;;;;;;13.70;6.93;;;;;;;;;;8237416;28;20456;-74
2021/10/01 01:09:57;;;;;;;18.85;8.30;;;;;;;;;;8222721;28;20354;-74
2021/10/01 01:14:15;;;;;;;14.90;7.85;;;;;;;;;;8209670;28;20049;-74
2021/10/01 01:18:33;;;;;;;17.92;7.63;;;;;;;;;;8222647;28;20518;-74
2021/10/01 01:22:41;;;;;;;;;;;;;;;;;;8223858;28;20471;-74
2021/10/01 01:27:39;;;;;;;18.42;6.78;;;;;;;;;;8245302;28;20432;-74
2021/10/01 01:31:56;;;;;;;13.70;6.38;;;;;;;;;;8212766;28;20353;-74
2021/10/01 01:36:03;;;;;;;;;;;;;;;;;;8229768;28;20369;-74
2021/10/01 01:40:12;;;;;;;22.23;7.00;;;;;;;;;;8212153;28;20364;-74
2021/10/01 01:44:18;;;;;;;15.23;7.03;;;;;;;;;;8228965;28;20425;-74
2021/10/01 01:48:26;;;;;;;12.80;6.40;;;;;;;;;;8212040;28;20049;-74
2021/10/01 01:52:32;;;;;;;13.50;6.45;;;;;;;;;;8229904;28;20076;-74
2021/10/01 01:56:41;;;;;;;12.00;5.85;;;;;;;;;;8244584;28;20043;-74
2021/10/01 02:00:48;;;;;;;15.83;6.57;;;;;;;;;;8227598;28;20088;-74
2021/10/01 02:04:55;;;;;;;20.90;6.90;;;;;;;;;;8227257;28;20494;-74
2021/10/01 02:09:02;;;;;;;15.40;6.78;;;;;;;;;;8225696;28;20045;-74
2021/10/01 02:13:14;;;;;;;16.50;6.35;;;;;;;;;;8228235;28;20476;-75
2021/10/01 02:17:24;;;;;;;16.33;6.63;;;;;;;;;;8243071;28;20069;-74
2021/10/01 02:21:31;;;;;;;15.27;6.25;;;;;;;;;;8243163;28;20488;-74
2021/10/01 02:30:12;;;;;;;15.47;6.93;;;;;;;;;;8229716;28;20037;-74
2021/10/01 02:34:27;;;;;;;27.08;7.60;;;;;;;;;;8225379;28;20449;-74
2021/10/01 02:38:32;;;;;;;14.82;6.53;;;;;;;;;;8227554;28;20041;-75
2021/10/01 02:42:38;;;;;;;32.10;6.80;;;;;;;;;;8226655;28;20064;-74
2021/10/01 02:46:44;;;;;;;15.35;6.70;;;;;;;;;;8225351;28;20068;-74
2021/10/01 02:50:57;;;;;;;11.85;6.03;;;;;;;;;;8225389;28;20456;-74
2021/10/01 02:55:22;;;;;;;23.27;6.05;;;;;;;;;;8226627;28;20507;-74
2021/10/01 02:59:30;;;;;;;18.00;7.03;;;;;;;;;;8224825;28;20049;-74
2021/10/01 03:03:47;;;;;;;21.58;5.95;;;;;;;;;;8242974;28;20045;-74
2021/10/01 03:07:53;;;;;;;11.45;5.32;;;;;;;;;;8225743;28;20113;-75
2021/10/01 03:12:00;;;;;;;11.65;5.60;;;;;;;;;;8208700;28;20412;-74
2021/10/01 03:16:06;;;;;;;13.75;6.00;;;;;;;;;;8225385;28;20050;-75
2021/10/01 03:20:12;;;;;;;12.35;5.88;;;;;;;;;;8224045;28;20045;-75
2021/10/01 03:24:21;;;;;;;14.38;5.95;;;;;;;;;;8240985;28;20357;-75
2021/10/01 03:28:27;;;;;;;9.52;5.30;;;;;;;;;;8208452;28;20053;-75
2021/10/01 03:32:32;;;;;;;14.85;5.43;;;;;;;;;;8208102;28;20448;-75
2021/10/01 03:36:37;;;;;;;11.82;5.38;;;;;;;;;;8209121;28;20464;-75
2021/10/01 03:40:43;;;;;;;15.32;5.22;;;;;;;;;;8224855;28;20049;-75
2021/10/01 03:44:48;;;;;;;17.80;5.50;;;;;;;;;;8224850;28;20477;-76
2021/10/01 03:48:54;;;;;;;13.48;5.53;;;;;;;;;;8223701;28;20465;-75
2021/10/01 03:53:00;;;;;;;9.38;5.45;;;;;;;;;;8241664;28;20065;-75
2021/10/01 03:57:05;;;;;;;13.13;6.00;;;;;;;;;;8241171;28;20445;-75
2021/10/01 04:01:11;;;;;;;11.13;4.93;;;;;;;;;;8224324;28;20488;-74
2021/10/01 04:05:17;;;;;;;13.63;5.15;;;;;;;;;;8226450;28;20045;-75
2021/10/01 04:09:23;;;;;;;12.63;5.10;;;;;;;;;;8223659;28;20492;-75
2021/10/01 04:13:29;;;;;;;7.88;4.88;;;;;;;;;;8239402;28;20050;-75
2021/10/01 04:17:34;;;;;;;10.63;5.35;;;;;;;;;;8225603;28;20364;-75
2021/10/01 04:21:40;;;;;;;12.20;5.60;;;;;;;;;;8209098;28;20064;-75
2021/10/01 04:25:45;;;;;;;17.38;6.32;;;;;;;;;;8207226;28;20480;-76
2021/10/01 04:29:51;;;;;;;16.48;7.18;;;;;;;;;;8240741;28;20490;-74
2021/10/01 04:33:58;;;;;;;13.13;6.38;;;;;;;;;;8223288;28;20056;-75
2021/10/01 04:38:03;;;;;;;18.73;6.90;;;;;;;;;;8223591;28;20377;-75
2021/10/01 04:42:09;;;;;;;20.48;5.10;;;;;;;;;;8223459;28;20453;-75
2021/10/01 04:46:14;;;;;;;11.95;5.70;;;;;;;;;;8223109;28;20049;-75
2021/10/01 04:50:20;;;;;;;12.35;5.97;;;;;;;;;;8223783;28;20490;-75
2021/10/01 04:54:25;;;;;;;13.38;5.70;;;;;;;;;;8238837;28;20480;-75
2021/10/01 04:58:30;;;;;;;10.55;6.28;;;;;;;;;;8242091;28;20457;-75
2021/10/01 05:02:54;;;;;;;10.75;5.80;;;;;;;;;;8198679;28;20457;-75
2021/10/01 05:07:09;;;;;;;19.33;7.63;;;;;;;;;;8212964;28;20385;-75
2021/10/01 05:11:33;;;;;;;13.52;5.88;;;;;;;;;;8197468;28;20131;-75
2021/10/01 05:15:57;;;;;;;10.88;5.53;;;;;;;;;;8162637;28;20385;-75
2021/10/01 05:20:20;;;;;;;11.55;5.70;;;;;;;;;;8198263;28;20262;-75
2021/10/01 05:24:32;;;;;;;10.45;6.32;;;;;;;;;;8165218;28;20369;-75
2021/10/01 05:28:37;;;;;;;12.73;6.53;;;;;;;;;;8213403;28;20472;-75
2021/10/01 05:32:42;;;;;;;13.43;5.63;;;;;;;;;;8196039;28;20495;-75
2021/10/01 05:36:47;;;;;;;12.45;5.47;;;;;;;;;;8196863;28;20389;-75
2021/10/01 05:40:54;;;;;;;15.07;6.05;;;;;;;;;;8212990;28;20323;-75
2021/10/01 05:44:58;;;;;;;12.43;6.28;;;;;;;;;;8197787;28;20530;-75
2021/10/01 05:49:24;;;;;;;18.50;6.28;;;;;;;;;;8196719;28;20476;-75
2021/10/01 05:54:00;;;;;;;12.00;6.13;;;;;;;;;;8196582;28;20483;-75
2021/10/01 05:58:28;;;;;;;15.38;6.57;;;;;;;;;;8185895;28;20070;-75
2021/10/01 06:02:34;;;;;;;10.60;6.50;;;;;;;;;;8244178;28;20476;-75
2021/10/01 06:06:39;;;;;;;11.43;6.72;;;;;;;;;;8218262;28;20388;-75
2021/10/01 06:10:44;;;;;;;13.45;6.57;;;;;;;;;;8247104;28;20103;-75
2021/10/01 06:14:49;;;;;;;15.07;7.68;;;;;;;;;;8230933;28;20472;-75
2021/10/01 06:18:55;;;;;;;19.15;7.22;;;;;;;;;;8227582;28;20071;-75
2021/10/01 06:23:00;;;;;;;12.63;7.38;;;;;;;;;;8226595;28;20469;-75
2021/10/01 06:27:07;;;;;;;16.05;7.90;;;;;;;;;;8228745;28;20460;-75
2021/10/01 06:31:12;;;;;;;17.42;7.32;;;;;;;;;;8210509;28;20506;-76
2021/10/01 06:35:17;;;;;;;13.55;7.28;;;;;;;;;;8227187;28;20049;-76
2021/10/01 06:39:22;;;;;;;16.42;7.45;;;;;;;;;;8226265;28;20456;-76
2021/10/01 06:43:29;;;;;;;15.48;7.18;;;;;;;;;;8229194;28;20469;-75
2021/10/01 06:47:41;;;;;;;18.15;8.10;;;;;;;;;;8227084;28;20460;-76
2021/10/01 06:52:11;;;;;;;16.40;6.63;;;;;;;;;;8227963;28;20456;-75
2021/10/01 08:19:25;;;;;;;17.13;6.35;;;;;;;;;;8225569;28;20472;-74
2021/10/01 08:23:30;;;;;;;9.40;5.03;;;;;;;;;;8225669;28;20357;-73
2021/10/01 08:27:35;;;;;;;16.15;5.13;;;;;;;;;;8222809;28;20453;-74
2021/10/01 08:31:42;;;;;;;10.77;5.10;;;;;;;;;;8225587;28;20338;-73
2021/10/01 08:35:47;;;;;;;9.00;4.78;;;;;;;;;;8230990;28;20356;-73
2021/10/01 08:39:53;;;;;;;11.27;4.05;;;;;;;;;;8231363;28;20479;-74
2021/10/01 08:44:36;;;;;;;7.28;3.65;;;;;;;;;;8180833;28;20507;-73
2021/10/01 08:48:40;;;;;;;7.35;3.20;;;;;;;;;;8229833;28;20476;-74
2021/10/01 08:52:48;;;;;;;4.47;2.60;;;;;;;;;;8229865;28;20479;-74
2021/10/01 08:56:54;;;;;;;7.33;3.83;;;;;;;;;;8213615;28;20492;-74
2021/10/01 09:01:02;;;;;;;6.97;3.40;;;;;;;;;;8244504;28;20476;-74
2021/10/01 09:05:08;;;;;;;7.50;4.07;;;;;;;;;;8230300;28;20522;-73
2021/10/01 09:09:14;;;;;;;5.88;3.53;;;;;;;;;;8230481;28;20605;-74
2021/10/01 09:13:22;;;;;;;8.20;3.25;;;;;;;;;;8229412;28;20464;-74
2021/10/01 09:17:31;;;;;;;5.78;2.40;;;;;;;;;;8229291;28;20338;-74
2021/10/01 09:21:50;;;;;;;4.63;2.67;;;;;;;;;;8231805;28;20456;-73
2021/10/01 09:26:15;;;;;;;9.48;3.17;;;;;;;;;;8229640;28;20068;-73
2021/10/01 09:30:23;;;;;;;6.85;3.15;;;;;;;;;;8228373;28;20457;-73
2021/10/01 09:34:28;;;;;;;4.65;2.45;;;;;;;;;;8212450;28;20068;-74
2021/10/01 09:38:37;;;;;;;11.25;1.83;;;;;;;;;;8231762;28;20483;-73
2021/10/01 09:42:47;;;;;;;3.72;2.33;;;;;;;;;;8229395;28;20350;-74
2021/10/01 09:46:52;;;;;;;6.32;2.00;;;;;;;;;;8227511;28;20079;-76
2021/10/01 09:51:19;;;;;;;3.05;1.70;;;;;;;;;;8228482;28;20459;-74
2021/10/01 09:55:35;;;;;;;1.83;1.20;;;;;;;;;;8226987;28;20510;-74
2021/10/01 09:59:41;;;;;;;4.72;1.70;;;;;;;;;;8226269;28;20077;-74
2021/10/01 10:03:46;;;;;;;3.85;1.85;;;;;;;;;;8228140;28;20049;-73
2021/10/01 10:07:51;;;;;;;3.75;1.95;;;;;;;;;;8228365;28;20472;-74
2021/10/01 10:11:56;;;;;;;3.67;1.38;;;;;;;;;;8226999;28;20372;-74
2021/10/01 10:16:30;;;;;;;2.95;1.90;;;;;;;;;;8225784;28;20488;-75
2021/10/01 10:20:35;;;;;;;5.03;2.75;;;;;;;;;;8226955;28;20065;-74
2021/10/01 10:24:42;;;;;;;4.90;2.10;;;;;;;;;;8227333;28;20037;-75
2021/10/01 10:28:48;;;;;;;4.90;2.85;;;;;;;;;;8236887;28;20344;-74
2021/10/01 10:32:53;;;;;;;5.15;2.00;;;;;;;;;;8244734;28;20380;-74
2021/10/01 10:37:09;;;;;;;4.88;2.50;;;;;;;;;;8229444;28;20357;-74
2021/10/01 10:41:23;;;;;;;7.15;2.83;;;;;;;;;;8226527;28;20475;-74
2021/10/01 10:45:28;;;;;;;6.82;2.47;;;;;;;;;;8210301;28;20460;-73
2021/10/01 10:49:32;;;;;;;5.30;2.63;;;;;;;;;;8228255;28;20479;-74
2021/10/01 10:53:41;;;;;;;5.97;3.33;;;;;;;;;;8255658;28;20342;-74
2021/10/01 10:57:49;;;;;;;5.93;3.28;;;;;;;;;;8246795;28;20049;-73
2021/10/01 11:02:41;;;;;;;9.20;3.47;;;;;;;;;;8225731;28;20404;-74
2021/10/01 11:06:45;;;;;;;6.88;3.08;;;;;;;;;;8255801;28;20340;-76
2021/10/01 11:10:51;;;;;;;7.43;3.30;;;;;;;;;;8257316;28;20482;-73
2021/10/01 11:15:23;;;;;;;8.27;3.50;;;;;;;;;;8235621;28;20064;-75
2021/10/01 11:19:40;;;;;;;6.22;3.55;;;;;;;;;;8230495;28;20459;-73
2021/10/01 11:24:10;;;;;;;7.72;3.67;;;;;;;;;;8224925;28;20449;-74
2021/10/01 11:28:15;;;;;;;8.38;3.70;;;;;;;;;;8215497;28;20063;-75
2021/10/01 11:32:23;;;;;;;5.22;3.17;;;;;;;;;;8259324;28;20395;-75
2021/10/01 11:36:27;;;;;;;5.35;3.25;;;;;;;;;;8260201;28;20456;-74
2021/10/01 11:40:32;;;;;;;5.15;3.30;;;;;;;;;;8260548;28;20359;-75
2021/10/01 11:44:37;;;;;;;5.45;3.47;;;;;;;;;;8258442;28;20456;-75
2021/10/01 11:48:42;;;;;;;5.35;3.60;;;;;;;;;;8253972;28;20041;-75
2021/10/01 11:52:48;;;;;;;5.03;2.97;;;;;;;;;;8258979;28;20395;-75
2021/10/01 11:56:58;;;;;;;11.88;2.67;;;;;;;;;;8259177;28;20068;-75
2021/10/01 12:01:16;;;;;;;5.45;3.30;;;;;;;;;;8261672;28;20349;-76
2021/10/01 12:05:32;;;;;;;4.03;2.55;;;;;;;;;;8254106;28;20350;-75
2021/10/01 12:09:37;;;;;;;6.40;2.88;;;;;;;;;;8243982;28;20420;-75
2021/10/01 12:13:41;;;;;;;10.38;3.13;;;;;;;;;;8242204;28;20452;-75
2021/10/01 12:17:45;;;;;;;4.78;2.75;;;;;;;;;;8244346;28;20384;-74
2021/10/01 12:21:49;;;;;;;6.03;3.03;;;;;;;;;;8217976;28;20457;-75
2021/10/01 12:25:55;;;;;;;4.50;2.53;;;;;;;;;;8231767;28;20480;-75
2021/10/01 12:29:59;;;;;;;5.22;3.03;;;;;;;;;;8247459;28;20474;-75
2021/10/01 12:34:10;;;;;;;8.23;2.78;;;;;;;;;;8260874;28;20499;-75
2021/10/01 12:38:15;;;;;;;6.78;2.53;;;;;;;;;;8258882;28;20407;-74
2021/10/01 12:42:31;;;;;;;4.57;2.42;;;;;;;;;;8257853;28;20472;-75
2021/10/01 12:46:42;;;;;;;4.00;2.30;;;;;;;;;;8246253;28;20049;-75
2021/10/01 12:50:45;;;;;;;3.17;2.22;;;;;;;;;;8258588;28;20351;-75
2021/10/01 12:55:00;;;;;;;3.97;2.83;;;;;;;;;;8257599;28;20433;-75
2021/10/01 12:59:06;;;;;;;4.53;2.60;;;;;;;;;;8244386;28;20457;-74
2021/10/01 13:03:11;;;;;;;6.30;2.42;;;;;;;;;;8239490;28;20041;-75
2021/10/01 13:07:40;;;;;;;4.53;2.70;;;;;;;;;;8224463;28;20058;-75
2021/10/01 13:11:51;;;;;;;5.55;2.53;;;;;;;;;;8224252;28;20476;-74
2021/10/01 13:16:09;;;;;;;4.53;2.45;;;;;;;;;;8225463;28;20348;-76
2021/10/01 13:20:15;;;;;;;7.05;3.15;;;;;;;;;;8236329;28;20590;-75
2021/10/01 13:24:28;;;;;;;7.13;3.90;;;;;;;;;;8247184;28;20365;-73
2021/10/01 13:28:33;;;;;;;4.63;3.00;;;;;;;;;;8233593;28;20372;-75
2021/10/01 13:32:38;;;;;;;7.93;3.08;;;;;;;;;;8230577;28;20364;-74
2021/10/01 13:36:44;;;;;;;5.70;2.95;;;;;;;;;;8230949;28;20099;-74
2021/10/01 13:40:48;;;;;;;5.38;3.20;;;;;;;;;;8189934;28;20554;-74
2021/10/01 13:44:52;;;;;;;7.13;3.20;;;;;;;;;;8251817;28;20373;-75
2021/10/01 13:48:56;;;;;;;9.65;2.90;;;;;;;;;;8244217;28;20457;-74
2021/10/01 13:52:59;;;;;;;6.60;2.85;;;;;;;;;;8243747;28;20468;-75
2021/10/01 13:57:03;;;;;;;6.80;3.03;;;;;;;;;;8244271;28;20464;-75
2021/10/01 14:01:07;;;;;;;6.57;2.92;;;;;;;;;;8229048;28;20465;-74
2021/10/01 14:05:14;;;;;;;6.97;3.00;;;;;;;;;;8231913;28;20499;-74
2021/10/01 14:09:21;;;;;;;6.57;3.22;;;;;;;;;;8252426;28;20366;-74
2021/10/01 14:13:46;;;;;;;6.43;2.80;;;;;;;;;;8249203;28;20037;-75
2021/10/01 14:17:49;;;;;;;7.45;3.33;;;;;;;;;;8262242;28;20475;-74
2021/10/01 14:21:55;;;;;;;4.85;2.70;;;;;;;;;;8256736;28;20318;-74
2021/10/01 14:26:00;;;;;;;7.18;2.30;;;;;;;;;;8245051;28;20734;-74
2021/10/01 14:30:12;;;;;;;2.70;1.83;;;;;;;;;;8261020;28;20472;-76
2021/10/01 14:34:17;;;;;;;7.95;3.33;;;;;;;;;;8244390;28;20488;-75
2021/10/01 14:38:21;;;;;;;8.38;2.78;;;;;;;;;;8249759;28;20487;-75
2021/10/01 14:42:26;;;;;;;4.43;2.35;;;;;;;;;;8260154;28;20467;-74
2021/10/01 14:46:32;;;;;;;5.00;2.88;;;;;;;;;;8260072;28;20060;-74
2021/10/01 14:50:38;;;;;;;2.20;1.90;;;;;;;;;;8239601;28;20467;-73
2021/10/01 14:54:43;;;;;;;10.10;2.60;;;;;;;;;;8242500;28;20064;-73
2021/10/01 14:58:47;;;;;;;3.58;2.63;;;;;;;;;;8256938;28;20471;-74
2021/10/01 15:02:52;;;;;;;3.50;2.15;;;;;;;;;;8237044;28;20433;-73
2021/10/01 15:06:56;;;;;;;5.00;2.80;;;;;;;;;;8229111;28;20075;-71
2021/10/01 15:11:02;;;;;;;4.40;2.85;;;;;;;;;;8263528;28;20042;-73
2021/10/01 15:15:08;;;;;;;7.35;2.63;;;;;;;;;;8240424;28;20041;-74
2021/10/01 15:19:12;;;;;;;7.00;2.67;;;;;;;;;;8250291;28;20052;-74
2021/10/01 15:23:17;;;;;;;4.53;2.38;;;;;;;;;;8239441;28;20341;-74
2021/10/01 15:27:21;;;;;;;5.03;2.67;;;;;;;;;;8241445;28;20472;-73
2021/10/01 15:31:25;;;;;;;5.38;2.90;;;;;;;;;;8236117;28;20471;-75
2021/10/01 15:35:30;;;;;;;4.63;2.30;;;;;;;;;;8248962;28;20471;-74
2021/10/01 15:39:36;;;;;;;4.63;2.60;;;;;;;;;;8224640;28;20472;-76
2021/10/01 15:43:41;;;;;;;7.72;2.97;;;;;;;;;;8239348;28;20049;-74
2021/10/01 15:47:46;;;;;;;5.68;2.70;;;;;;;;;;8225829;28;20476;-74
2021/10/01 15:51:50;;;;;;;9.52;2.53;;;;;;;;;;8223799;28;20459;-74
2021/10/01 15:55:55;;;;;;;5.05;3.20;;;;;;;;;;8239328;28;20372;-74
2021/10/01 16:00:04;;;;;;;6.85;2.92;;;;;;;;;;8249262;28;20535;-74
2021/10/01 16:04:09;;;;;;;;;;;;;;;;;;8252316;28;20368;-74
2021/10/01 16:08:15;;;;;;;7.22;3.28;;;;;;;;;;8254876;28;19921;-74
2021/10/01 16:12:21;;;;;;;5.40;3.35;;;;;;;;;;8244820;28;20351;-74
2021/10/01 16:16:25;;;;;;;4.93;2.60;;;;;;;;;;8238076;28;20463;-74
2021/10/01 16:20:32;;;;;;;5.60;2.60;;;;;;;;;;8238901;28;20057;-73
2021/10/01 16:24:36;;;;;;;4.47;2.72;;;;;;;;;;8247554;28;20453;-74
2021/10/01 16:28:40;;;;;;;5.22;2.30;;;;;;;;;;8254794;28;20349;-74
2021/10/01 16:32:43;;;;;;;2.95;2.40;;;;;;;;;;8233272;28;20450;-75
2021/10/01 16:36:49;;;;;;;8.55;2.95;;;;;;;;;;8225121;28;20514;-74
2021/10/01 16:40:55;;;;;;;7.97;3.78;;;;;;;;;;8236801;28;20475;-74
2021/10/01 16:45:00;;;;;;;7.43;4.10;;;;;;;;;;8256143;28;20484;-75
2021/10/01 16:49:06;;;;;;;8.38;4.88;;;;;;;;;;8253248;28;20406;-74
2021/10/01 16:53:11;;;;;;;6.70;4.65;;;;;;;;;;8254000;28;20375;-74
2021/10/01 16:57:16;;;;;;;16.25;4.60;;;;;;;;;;8261751;28;20057;-75
2021/10/01 17:01:21;;;;;;;616.90;330.10;;;;;;;;;;8261671;28;20067;-74
2021/10/01 17:05:28;;;;;;;99.20;42.90;;;;;;;;;;8261684;28;20452;-74
2021/10/01 17:09:33;;;;;;;46.00;19.83;;;;;;;;;;8261755;28;20420;-75
2021/10/01 17:13:38;;;;;;;399.95;154.85;;;;;;;;;;8260979;28;20408;-74
2021/10/01 17:17:45;;;;;;;27.58;14.05;;;;;;;;;;8264973;28;20667;-74
2021/10/01 17:21:50;;;;;;;59.35;24.23;;;;;;;;;;8261017;28;20072;-74
2021/10/01 17:25:55;;;;;;;26.50;12.98;;;;;;;;;;8260877;28;20483;-75
2021/10/01 17:30:00;;;;;;;47.38;18.70;;;;;;;;;;8262034;28;20475;-74
2021/10/01 17:34:05;;;;;;;41.53;17.20;;;;;;;;;;8261360;28;20471;-74
2021/10/01 17:38:10;;;;;;;36.72;14.02;;;;;;;;;;8263202;28;20480;-74
2021/10/01 17:42:16;;;;;;;213.15;61.40;;;;;;;;;;8260487;28;20482;-74
2021/10/01 17:46:21;;;;;;;116.43;45.67;;;;;;;;;;8261531;28;20349;-73
2021/10/01 17:50:26;;;;;;;15.20;8.25;;;;;;;;;;8244456;28;20356;-75
2021/10/01 17:54:31;;;;;;;79.82;36.78;;;;;;;;;;8261897;28;20075;-74
2021/10/01 17:58:36;;;;;;;26.30;9.93;;;;;;;;;;8260984;28;20348;-74
2021/10/01 18:02:42;;;;;;;34.70;16.60;;;;;;;;;;8260593;28;20502;-74
2021/10/01 18:06:47;;;;;;;57.80;27.17;;;;;;;;;;8259749;28;20341;-73
2021/10/01 18:10:52;;;;;;;16.85;9.52;;;;;;;;;;8260278;28;20387;-74
2021/10/01 18:14:58;;;;;;;86.53;35.67;;;;;;;;;;8259239;28;20452;-74
2021/10/01 18:19:04;;;;;;;1286.55;403.63;;;;;;;;;;8260316;28;20435;-74
2021/10/01 18:23:10;;;;;;;125.10;37.40;;;;;;;;;;8259693;28;20380;-74
2021/10/01 18:27:15;;;;;;;525.03;132.35;;;;;;;;;;8258587;28;20329;-74
2021/10/01 18:31:20;;;;;;;1003.78;328.17;;;;;;;;;;8261470;28;20041;-75
2021/10/01 18:35:25;;;;;;;145.13;43.53;;;;;;;;;;8242040;28;20452;-74
2021/10/01 18:39:31;;;;;;;352.27;97.30;;;;;;;;;;8259691;28;20491;-74
2021/10/01 18:43:38;;;;;;;450.40;135.55;;;;;;;;;;8258982;28;20484;-74
2021/10/01 18:47:43;;;;;;;309.17;106.43;;;;;;;;;;8258820;28;20352;-74
2021/10/01 18:51:48;;;;;;;186.95;65.00;;;;;;;;;;8259617;28;20609;-74
2021/10/01 18:55:54;;;;;;;131.20;48.80;;;;;;;;;;8258844;28;20488;-74
2021/10/01 18:59:59;;;;;;;115.80;45.97;;;;;;;;;;8258651;28;20433;-74
2021/10/01 19:04:04;;;;;;;81.78;29.48;;;;;;;;;;8260123;28;20498;-74
2021/10/01 19:08:09;;;;;;;359.27;128.20;;;;;;;;;;8259156;28;20360;-74
2021/10/01 19:12:14;;;;;;;139.07;51.90;;;;;;;;;;8261260;28;20482;-74
2021/10/01 19:16:24;;;;;;;240.77;78.55;;;;;;;;;;8257809;28;20460;-76
2021/10/01 19:20:30;;;;;;;78.93;30.48;;;;;;;;;;8256375;28;20403;-74
2021/10/01 19:24:38;;;;;;;24.75;11.40;;;;;;;;;;8241979;28;20045;-74
2021/10/01 19:33:05;;;;;;;31.45;15.82;;;;;;;;;;8257251;28;20475;-75
2021/10/01 19:37:14;;;;;;;22.38;12.13;;;;;;;;;;8257776;28;20071;-75
2021/10/01 19:41:19;;;;;;;;;;;;;;;;;;8258495;28;20480;-74
2021/10/01 19:45:25;;;;;;;19.60;9.70;;;;;;;;;;8256897;28;20340;-74
2021/10/01 19:49:30;;;;;;;18.33;10.02;;;;;;;;;;8257981;28;20470;-75
2021/10/01 19:53:36;;;;;;;29.92;13.13;;;;;;;;;;8257390;28;20056;-74
2021/10/01 19:57:43;;;;;;;32.92;15.98;;;;;;;;;;8258594;28;20345;-75
2021/10/01 20:01:55;;;;;;;17.00;10.27;;;;;;;;;;8257988;28;20471;-75
2021/10/01 20:06:01;;;;;;;13.88;7.65;;;;;;;;;;8256163;28;20452;-76
2021/10/01 20:10:10;;;;;;;14.63;7.93;;;;;;;;;;8259217;28;20460;-75
2021/10/01 20:14:15;;;;;;;17.05;8.68;;;;;;;;;;8257857;28;20364;-75
2021/10/01 20:18:32;;;;;;;18.83;11.13;;;;;;;;;;8258003;28;20439;-75
2021/10/01 20:22:49;;;;;;;17.15;9.10;;;;;;;;;;8257374;28;20506;-75
2021/10/01 20:48:50;;;;;;;20.25;9.68;;;;;;;;;;8263567;28;20033;-75
2021/10/01 20:52:55;;;;;;;17.25;9.15;;;;;;;;;;8262639;28;20379;-75
2021/10/01 20:57:04;;;;;;;19.63;8.95;;;;;;;;;;8266144;28;20041;-75
2021/10/01 21:01:22;;;;;;;14.85;8.32;;;;;;;;;;8261903;28;20503;-76
2021/10/01 21:45:15;;;;;;;21.00;8.35;;;;;;;;;;8262668;28;20484;-75
2021/10/01 21:49:21;;;;;;;21.02;9.85;;;;;;;;;;8264256;28;20467;-75
2021/10/01 21:53:29;;;;;;;16.92;8.98;;;;;;;;;;8259453;28;20122;-75
2021/10/01 21:57:36;;;;;;;21.50;8.52;;;;;;;;;;8264165;28;20406;-75
2021/10/01 22:01:44;;;;;;;19.15;8.35;;;;;;;;;;8259372;28;20352;-75
2021/10/01 22:10:24;;;;;;;20.58;9.55;;;;;;;;;;8263504;28;20458;-76
2021/10/01 22:23:09;;;;;;;22.92;10.52;;;;;;;;;;8245115;28;20341;-75
2021/10/01 22:27:14;;;;;;;22.25;8.82;;;;;;;;;;8260989;28;20503;-75
2021/10/01 22:31:20;;;;;;;14.45;8.18;;;;;;;;;;8259206;28;20452;-75
2021/10/01 22:35:26;;;;;;;16.85;9.00;;;;;;;;;;8258811;28;20049;-75
2021/10/01 22:39:35;;;;;;;13.32;7.78;;;;;;;;;;8258521;28;20464;-75
2021/10/01 22:43:43;;;;;;;12.60;7.22;;;;;;;;;;8260578;28;20479;-76
2021/10/01 22:47:50;;;;;;;14.97;7.03;;;;;;;;;;8258287;28;20437;-75
2021/10/01 22:51:55;;;;;;;13.30;7.57;;;;;;;;;;8259437;28;20487;-75
2021/10/01 22:56:06;;;;;;;20.30;7.20;;;;;;;;;;8260711;28;20044;-76
2021/10/01 23:00:22;;;;;;;13.70;7.60;;;;;;;;;;8259910;28;20522;-76
2021/10/01 23:04:28;;;;;;;16.20;6.80;;;;;;;;;;8260108;28;20079;-76
2021/10/01 23:08:33;;;;;;;12.23;6.78;;;;;;;;;;8260429;28;20056;-77
2021/10/01 23:12:45;;;;;;;14.13;6.65;;;;;;;;;;8260596;28;20067;-76
2021/10/01 23:17:19;;;;;;;11.05;6.68;;;;;;;;;;8242568;28;20410;-77
2021/10/01 23:43:43;;;;;;;10.95;6.32;;;;;;;;;;8259447;28;20376;-75
2021/10/01 23:52:16;;;;;;;12.35;6.05;;;;;;;;;;8258362;28;20490;-75
